Time;durP1;ratioP1;P1;durP2;ratioP2;P2;SDS_P1;SDS_P2;PMS_P1;PMS_P2;Temp;Humidity;BMP_temperature;BMP_pressure;BME280_temperature;BME280_humidity;BME280_pressure;Samples;Min_cycle;Max_cycle;Signal;HPM_P1;HPM_P2
2022/09/27 00:01:57;;;;;;;2.13;0.80;;;;;;;10.92;100.00;99523.28;5071285;28;20291;-69
2022/09/27 00:04:23;;;;;;;1.60;0.93;;;;;;;9.95;100.00;99371.63;5077883;28;20206;-69
2022/09/27 00:06:48;;;;;;;4.10;1.33;;;;;;;10.86;100.00;99527.72;5073715;28;20186;-70
2022/09/27 00:09:14;;;;;;;2.37;1.10;;;;;;;10.25;100.00;99410.97;5067364;28;20210;-70
2022/09/27 00:11:41;;;;;;;2.40;0.90;;;;;;;10.89;100.00;99521.06;5065618;28;20847;-70
2022/09/27 00:14:09;;;;;;;2.80;0.97;;;;;;;10.73;100.00;99498.44;5069318;28;20265;-70
2022/09/27 00:16:36;;;;;;;6.20;1.37;;;;;;;10.94;100.00;99515.84;5072816;28;20441;-70
2022/09/27 00:19:06;;;;;;;3.03;1.40;;;;;;;10.19;100.00;99396.63;5070322;28;20478;-69
2022/09/27 00:21:31;;;;;;;3.30;1.40;;;;;;;10.54;100.00;99522.66;5070944;28;20959;-70
2022/09/27 00:23:58;;;;;;;3.80;1.50;;;;;;;10.28;100.00;99454.22;5065481;28;20436;-68
2022/09/27 00:26:24;;;;;;;3.80;1.03;;;;;;;10.82;100.00;99518.53;5074716;28;20236;-69
2022/09/27 00:28:50;;;;;;;1.70;1.00;;;;;;;10.31;100.00;99447.59;5071434;28;20914;-70
2022/09/27 00:31:28;;;;;;;2.40;1.00;;;;;;;10.49;100.00;99490.38;5074900;28;20503;-70
2022/09/27 00:33:55;;;;;;;4.20;1.07;;;;;;;10.11;100.00;99391.59;5075872;28;20534;-69
2022/09/27 00:36:22;;;;;;;4.87;1.53;;;;;;;10.58;100.00;99459.47;5076346;28;20554;-69
2022/09/27 00:38:48;;;;;;;2.80;1.10;;;;;;;10.29;100.00;99418.31;5073376;28;20433;-69
2022/09/27 00:41:16;;;;;;;3.73;1.50;;;;;;;10.86;100.00;99527.72;5073990;28;20450;-69
2022/09/27 00:43:54;;;;;;;4.43;1.60;;;;;;;11.16;100.00;99530.28;5077565;28;20435;-69
2022/09/27 00:46:46;;;;;;;4.80;1.67;;;;;;;10.14;100.00;99421.41;5076208;28;20455;-69
2022/09/27 00:49:24;;;;;;;3.87;1.10;;;;;;;10.83;100.00;99526.31;5074308;28;20507;-69
2022/09/27 00:52:01;;;;;;;4.67;1.27;;;;;;;10.35;100.00;99427.28;5071924;28;20468;-69
2022/09/27 00:54:30;;;;;;;1.90;1.20;;;;;;;10.19;100.00;99450.22;5087055;28;20514;-69
2022/09/27 00:56:56;;;;;;;3.83;1.40;;;;;;;10.91;100.00;99524.34;5071345;28;20469;-69
2022/09/27 00:59:34;;;;;;;2.77;1.20;;;;;;;10.47;100.00;99463.00;5074157;28;20441;-70
2022/09/27 01:02:03;;;;;;;4.50;1.30;;;;;;;10.12;100.00;99418.13;5071264;28;20441;-69
2022/09/27 01:04:30;;;;;;;7.40;1.67;;;;;;;10.03;100.00;99432.09;5074914;28;20468;-69
2022/09/27 01:06:55;;;;;;;8.10;1.40;;;;;;;10.54;100.00;99490.50;5073634;28;20553;-69
2022/09/27 01:09:23;;;;;;;3.13;1.03;;;;;;;10.52;100.00;99463.09;5059264;28;20465;-69
2022/09/27 01:12:16;;;;;;;6.20;1.43;;;;;;;10.80;100.00;99534.81;5068845;28;20187;-69
2022/09/27 01:15:11;;;;;;;2.20;0.90;;;;;;;10.81;100.00;99536.44;5076269;28;20458;-69
2022/09/27 01:17:51;;;;;;;7.10;1.90;;;;;;;10.83;100.00;99534.38;5071123;28;20439;-70
2022/09/27 01:20:34;;;;;;;5.83;1.00;;;;;;;10.95;100.00;99533.56;5070041;28;20936;-68
2022/09/27 01:23:22;;;;;;;3.10;1.00;;;;;;;9.84;100.00;99362.56;5069090;28;20583;-68
2022/09/27 01:26:08;;;;;;;5.80;1.80;;;;;;;10.80;100.00;99534.81;5070410;28;20466;-68
2022/09/27 01:29:11;;;;;;;3.80;0.97;;;;;;;11.04;100.00;99535.66;5058516;28;20758;-69
2022/09/27 01:32:05;;;;;;;4.83;1.17;;;;;;;10.86;100.00;99538.44;5077361;28;20432;-68
2022/09/27 01:35:03;;;;;;;2.13;0.73;;;;;;;10.51;100.00;99484.78;5071392;28;20596;-69
2022/09/27 01:37:43;;;;;;;3.13;0.90;;;;;;;10.76;100.00;99543.56;5080264;28;20421;-69
2022/09/27 01:40:28;;;;;;;4.83;0.90;;;;;;;10.74;100.00;99526.91;5075464;28;20689;-69
2022/09/27 01:43:18;;;;;;;2.90;0.70;;;;;;;10.70;100.00;99526.53;5075867;28;20400;-69
2022/09/27 01:46:07;;;;;;;3.60;0.70;;;;;;;10.30;100.00;99486.13;5077660;28;20823;-69
2022/09/27 01:48:40;;;;;;;2.40;1.03;;;;;;;10.67;100.00;99526.19;5077070;28;20940;-69
2022/09/27 01:51:15;;;;;;;3.60;1.07;;;;;;;9.87;100.00;99430.91;5076233;28;20428;-68
2022/09/27 01:53:43;;;;;;;3.63;0.90;;;;;;;10.62;100.00;99522.34;5068848;28;20438;-69
2022/09/27 01:56:15;;;;;;;3.07;1.00;;;;;;;10.48;100.00;99507.50;5054886;28;20468;-69
2022/09/27 01:58:59;;;;;;;2.27;0.73;;;;;;;10.62;100.00;99522.34;5076125;28;20433;-70
2022/09/27 02:01:28;;;;;;;2.10;0.70;;;;;;;9.86;100.00;99384.53;5074082;28;20429;-69
2022/09/27 02:03:57;;;;;;;3.10;1.00;;;;;;;10.56;100.00;99515.22;5069584;28;20451;-69
2022/09/27 02:06:37;;;;;;;3.23;1.10;;;;;;;9.64;100.00;99394.97;5073459;28;20522;-69
2022/09/27 02:09:08;;;;;;;1.87;0.80;;;;;;;10.06;100.00;99445.84;5069697;28;20457;-68
2022/09/27 02:11:37;;;;;;;4.83;1.07;;;;;;;10.42;100.00;99510.31;5071501;28;20457;-69
2022/09/27 02:14:21;;;;;;;3.77;0.93;;;;;;;10.34;100.00;99496.16;5054972;28;20456;-68
2022/09/27 02:16:51;;;;;;;2.30;0.77;;;;;;;10.54;100.00;99530.72;5071786;28;20523;-69
2022/09/27 02:19:36;;;;;;;2.70;0.90;;;;;;;10.60;100.00;99540.50;5069390;28;20441;-67
2022/09/27 02:22:18;;;;;;;3.30;0.90;;;;;;;10.59;100.00;99503.22;5067941;28;20441;-67
2022/09/27 02:24:57;;;;;;;4.93;1.10;;;;;;;10.30;100.00;99496.84;5069310;28;20559;-68
2022/09/27 02:27:28;;;;;;;3.03;1.30;;;;;;;10.43;100.00;99507.38;5070062;28;20456;-68
2022/09/27 02:30:04;;;;;;;1.73;0.70;;;;;;;10.28;100.00;99489.06;5054845;28;20966;-67
2022/09/27 02:32:31;;;;;;;2.00;0.90;;;;;;;10.56;100.00;99523.25;5072779;28;20782;-68
2022/09/27 02:35:02;;;;;;;4.30;0.87;;;;;;;10.49;100.00;99505.63;5074659;28;20448;-68
2022/09/27 02:37:29;;;;;;;2.13;0.90;;;;;;;9.94;100.00;99437.78;5069749;28;20531;-68
2022/09/27 02:39:56;;;;;;;1.70;0.80;;;;;;;10.62;100.00;99500.88;5071524;28;21314;-68
2022/09/27 02:42:21;;;;;;;1.27;0.70;;;;;;;10.57;100.00;99497.28;5072473;28;20441;-69
2022/09/27 02:44:47;;;;;;;2.07;0.73;;;;;;;10.04;100.00;99436.41;5070962;28;20464;-69
2022/09/27 02:47:18;;;;;;;2.50;0.90;;;;;;;10.71;100.00;99527.38;5071488;28;20195;-68
2022/09/27 02:50:12;;;;;;;5.70;1.57;;;;;;;10.63;100.00;99521.28;5066972;28;20258;-67
2022/09/27 02:52:55;;;;;;;4.43;1.43;;;;;;;10.65;100.00;99525.63;5073367;28;20425;-67
2022/09/27 02:55:37;;;;;;;3.80;0.70;;;;;;;10.12;100.00;99434.22;5070527;28;20475;-67
2022/09/27 02:58:26;;;;;;;3.67;0.70;;;;;;;10.80;100.00;99528.66;5072320;28;20420;-67
2022/09/27 03:00:59;;;;;;;4.43;1.00;;;;;;;10.33;100.00;99502.59;5070479;28;20475;-67
2022/09/27 03:03:40;;;;;;;2.17;0.70;;;;;;;9.69;100.00;99392.44;5067909;28;20894;-67
2022/09/27 03:06:10;;;;;;;3.17;0.70;;;;;;;10.75;100.00;99517.81;5067270;28;20826;-67
2022/09/27 03:08:37;;;;;;;3.27;0.97;;;;;;;10.01;100.00;99432.34;5065906;28;21037;-68
2022/09/27 03:11:03;;;;;;;1.70;0.70;;;;;;;9.96;100.00;99413.47;5071213;28;20809;-68
2022/09/27 03:13:28;;;;;;;2.87;1.07;;;;;;;9.78;100.00;99405.47;5072062;28;20436;-68
2022/09/27 03:15:54;;;;;;;2.60;0.90;;;;;;;9.75;100.00;99388.03;5070264;28;20210;-68
2022/09/27 03:18:19;;;;;;;3.10;1.07;;;;;;;10.49;100.00;99514.50;5052899;28;20182;-68
2022/09/27 03:20:45;;;;;;;4.50;0.80;;;;;;;10.46;100.00;99498.06;5068749;28;20179;-68
2022/09/27 03:23:10;;;;;;;3.80;0.80;;;;;;;9.98;100.00;99438.16;5070054;28;20183;-68
2022/09/27 03:25:35;;;;;;;2.20;0.70;;;;;;;10.51;100.00;99517.78;5052347;28;20231;-68
2022/09/27 03:28:01;;;;;;;4.53;1.00;;;;;;;10.58;100.00;99509.63;5073763;28;20210;-68
2022/09/27 03:30:26;;;;;;;3.10;0.87;;;;;;;9.97;100.00;99412.41;5069593;28;20247;-68
2022/09/27 03:32:52;;;;;;;1.57;0.70;;;;;;;10.36;100.00;99485.25;5072278;28;20182;-68
2022/09/27 03:35:17;;;;;;;2.73;1.07;;;;;;;10.63;100.00;99502.50;5070989;28;20213;-67
2022/09/27 03:37:43;;;;;;;1.10;0.60;;;;;;;9.69;100.00;99372.88;5059291;28;20200;-68
2022/09/27 03:40:09;;;;;;;3.10;0.63;;;;;;;10.57;100.00;99497.28;5073372;28;20706;-68
2022/09/27 03:42:35;;;;;;;3.07;0.60;;;;;;;10.46;100.00;99441.78;5075767;28;20457;-68
2022/09/27 03:45:00;;;;;;;1.60;0.70;;;;;;;10.34;100.00;99439.88;5070339;28;20558;-68
2022/09/27 03:47:26;;;;;;;1.73;0.90;;;;;;;10.10;100.00;99427.47;5072221;28;20207;-67
2022/09/27 03:49:52;;;;;;;1.70;0.60;;;;;;;10.40;100.00;99478.34;5072153;28;20714;-67
2022/09/27 03:52:18;;;;;;;3.23;1.00;;;;;;;10.14;100.00;99429.44;5056099;28;20198;-67
2022/09/27 03:57:14;;;;;;;2.20;0.70;;;;;;;10.44;100.00;99446.53;5081514;28;20494;-73
2022/09/27 03:59:39;;;;;;;1.93;0.70;;;;;;;10.54;100.00;99468.25;5075329;28;20434;-73
2022/09/27 04:02:04;;;;;;;2.50;0.73;;;;;;;10.22;100.00;99451.63;5096327;28;20731;-73
2022/09/27 04:04:30;;;;;;;2.20;0.80;;;;;;;9.54;100.00;99345.72;5097241;28;20294;-73
2022/09/27 04:06:57;;;;;;;1.43;0.70;;;;;;;9.56;100.00;99392.63;5076633;28;20193;-73
2022/09/27 04:09:23;;;;;;;0.93;0.70;;;;;;;9.80;100.00;99425.63;5075726;28;20284;-73
2022/09/27 04:11:49;;;;;;;1.80;0.63;;;;;;;9.63;100.00;99406.75;5092388;28;20530;-73
2022/09/27 04:14:14;;;;;;;2.20;0.70;;;;;;;10.24;100.00;99495.91;5079510;28;20186;-73
2022/09/27 04:16:39;;;;;;;1.80;0.50;;;;;;;10.23;100.00;99501.47;5074539;28;20737;-73
2022/09/27 04:19:06;;;;;;;4.37;1.10;;;;;;;9.87;100.00;99476.44;5094762;28;20174;-73
2022/09/27 04:21:33;;;;;;;2.10;0.80;;;;;;;9.24;100.00;99357.25;5094271;28;20181;-74
2022/09/27 04:23:58;;;;;;;1.33;0.60;;;;;;;9.72;100.00;99450.09;5068754;28;20829;-75
2022/09/27 04:26:24;;;;;;;1.17;0.53;;;;;;;9.95;100.00;99439.44;5093635;28;21010;-75
2022/09/27 04:28:51;;;;;;;1.43;0.60;;;;;;;9.48;100.00;99417.84;5094897;28;20209;-74
2022/09/27 04:31:17;;;;;;;1.23;0.60;;;;;;;9.86;100.00;99456.84;5075528;28;20944;-74
2022/09/27 04:33:42;;;;;;;1.60;0.70;;;;;;;9.59;100.00;99402.88;5071936;28;20428;-74
2022/09/27 04:36:27;;;;;;;1.80;0.70;;;;;;;10.27;100.00;99505.34;5093886;28;20518;-74
2022/09/27 04:38:59;;;;;;;1.80;0.70;;;;;;;9.81;100.00;99431.84;5074950;28;20665;-74
2022/09/27 04:41:26;;;;;;;3.33;0.87;;;;;;;9.71;100.00;99405.59;5077926;28;20463;-73
2022/09/27 04:43:52;;;;;;;1.20;0.70;;;;;;;10.07;100.00;99450.19;5091113;28;20443;-74
2022/09/27 04:46:19;;;;;;;2.40;0.93;;;;;;;10.06;100.00;99435.13;5095851;28;20464;-74
2022/09/27 04:48:44;;;;;;;1.20;0.60;;;;;;;10.42;100.00;99454.81;5072397;28;20206;-73
2022/09/27 04:51:10;;;;;;;2.80;0.70;;;;;;;9.69;100.00;99357.63;5069223;28;20438;-73
2022/09/27 04:53:36;;;;;;;1.03;0.70;;;;;;;10.25;100.00;99464.56;5090994;28;20186;-73
2022/09/27 04:56:04;;;;;;;3.50;0.93;;;;;;;9.87;100.00;99433.59;5090039;28;20210;-73
2022/09/27 04:58:30;;;;;;;2.50;0.60;;;;;;;10.65;100.00;99507.66;5075652;28;20170;-73
2022/09/27 05:00:55;;;;;;;2.20;0.60;;;;;;;10.23;100.00;99451.38;5076366;28;20466;-73
2022/09/27 05:03:21;;;;;;;2.80;0.67;;;;;;;10.83;100.00;99515.59;5094450;28;20185;-74
2022/09/27 05:05:47;;;;;;;1.77;0.77;;;;;;;9.82;100.00;99431.59;5088418;28;20376;-73
2022/09/27 05:08:13;;;;;;;1.80;1.00;;;;;;;9.88;100.00;99419.16;5094345;28;21007;-74
2022/09/27 05:10:38;;;;;;;1.10;0.70;;;;;;;10.45;100.00;99501.81;5090459;28;20685;-73
2022/09/27 05:13:05;;;;;;;2.63;0.80;;;;;;;9.87;100.00;99446.97;5089159;28;20639;-74
2022/09/27 05:15:30;;;;;;;4.80;1.80;;;;;;;10.38;100.00;99500.00;5075483;28;20578;-74
2022/09/27 05:17:57;;;;;;;7.07;1.27;;;;;;;10.10;100.00;99447.03;5078177;28;20511;-74
2022/09/27 05:20:24;;;;;;;2.40;0.87;;;;;;;10.39;100.00;99490.94;5077598;28;20210;-74
2022/09/27 05:22:50;;;;;;;1.57;0.70;;;;;;;9.88;100.00;99443.25;5067579;28;20792;-74
2022/09/27 05:25:15;;;;;;;2.10;0.90;;;;;;;10.06;100.00;99437.81;5068639;28;20953;-74
2022/09/27 05:27:41;;;;;;;1.47;0.70;;;;;;;10.08;100.00;99441.09;5091442;28;20471;-74
2022/09/27 05:30:07;;;;;;;4.17;0.83;;;;;;;9.77;100.00;99425.28;5077067;28;20186;-74
2022/09/27 05:32:33;;;;;;;2.90;1.23;;;;;;;10.48;100.00;99534.31;5068598;28;20178;-74
2022/09/27 05:34:59;;;;;;;10.17;5.43;;;;;;;10.01;100.00;99504.69;5073663;28;20448;-73
2022/09/27 05:37:24;;;;;;;8.17;6.10;;;;;;;9.87;100.00;99521.97;5085927;28;20518;-74
2022/09/27 05:40:10;;;;;;;;;;;;;;;;;;;;;
2022/09/27 05:42:37;;;;;;;7.00;2.70;;;;;;;9.21;100.00;99470.88;5063215;28;20183;-77
2022/09/27 05:45:04;;;;;;;2.53;1.37;;;;;;;8.24;100.00;99285.38;5043145;28;20935;-76
2022/09/27 05:47:29;;;;;;;3.67;1.30;;;;;;;7.66;100.00;99148.56;5073715;28;20444;-76
2022/09/27 05:49:54;;;;;;;2.47;1.17;;;;;;;10.01;100.00;99538.66;5071258;28;20464;-76
2022/09/27 05:52:20;;;;;;;2.73;0.90;;;;;;;8.74;100.00;99371.63;5069271;28;20190;-75
2022/09/27 05:54:45;;;;;;;3.57;1.00;;;;;;;7.95;100.00;99226.28;5051572;28;20584;-74
2022/09/27 05:57:11;;;;;;;2.80;1.03;;;;;;;8.98;100.00;99385.94;5071534;28;20282;-74
2022/09/27 05:59:36;;;;;;;4.33;1.00;;;;;;;8.22;100.00;99282.94;5071066;28;20179;-74
2022/09/27 06:02:02;;;;;;;4.67;1.00;;;;;;;7.93;100.00;99196.34;5070244;28;20190;-74
2022/09/27 06:04:27;;;;;;;3.83;1.27;;;;;;;9.71;100.00;99467.97;5071910;28;20187;-73
2022/09/27 06:06:53;;;;;;;3.23;0.90;;;;;;;8.57;100.00;99336.66;5066927;28;20194;-74
2022/09/27 06:09:18;;;;;;;4.30;1.23;;;;;;;9.33;100.00;99440.69;5072126;28;20218;-73
2022/09/27 06:11:45;;;;;;;2.67;1.20;;;;;;;10.27;100.00;99607.19;5068292;28;20244;-73
2022/09/27 06:14:13;;;;;;;2.47;0.90;;;;;;;9.66;100.00;99445.59;5048004;28;20178;-74
2022/09/27 06:16:38;;;;;;;3.87;1.00;;;;;;;9.90;100.00;99516.97;5056045;28;20582;-74
2022/09/27 06:19:04;;;;;;;3.23;1.10;;;;;;;10.58;100.00;99561.38;5072681;28;20440;-73
2022/09/27 06:21:30;;;;;;;6.57;1.90;;;;;;;10.32;100.00;99575.16;5062005;28;20730;-74
2022/09/27 06:23:58;;;;;;;4.07;1.30;;;;;;;9.41;100.00;99453.78;5066179;28;20324;-73
2022/09/27 06:26:26;;;;;;;7.93;1.10;;;;;;;10.06;100.00;99544.97;5055165;28;20230;-74
2022/09/27 06:28:51;;;;;;;5.20;1.00;;;;;;;9.30;100.00;99481.28;5063482;28;20453;-73
2022/09/27 06:31:17;;;;;;;3.90;1.80;;;;;;;9.81;100.00;99571.09;5042354;28;20448;-73
2022/09/27 06:33:44;;;;;;;5.90;0.93;;;;;;;8.96;100.00;99400.59;5045082;28;20663;-73
2022/09/27 06:36:09;;;;;;;3.40;0.97;;;;;;;10.07;100.00;99562.72;5062030;28;20255;-73
2022/09/27 06:38:35;;;;;;;3.10;1.10;;;;;;;9.39;100.00;99464.69;5063795;28;20817;-74
2022/09/27 06:41:02;;;;;;;2.30;0.90;;;;;;;9.94;100.00;99581.63;5073642;28;20186;-74
2022/09/27 06:43:28;;;;;;;3.97;1.00;;;;;;;9.60;100.00;99508.91;5056489;28;20219;-74
2022/09/27 06:45:53;;;;;;;3.70;0.83;;;;;;;9.44;100.00;99501.50;5068264;28;20556;-74
2022/09/27 06:48:19;;;;;;;2.13;1.00;;;;;;;9.04;100.00;99417.16;5072503;28;20548;-74
2022/09/27 06:50:47;;;;;;;3.10;1.43;;;;;;;9.18;100.00;99407.13;5057131;28;20183;-74
2022/09/27 06:53:14;;;;;;;3.30;1.00;;;;;;;10.12;100.00;99573.53;5042887;28;20207;-74
2022/09/27 06:55:40;;;;;;;3.13;1.13;;;;;;;9.58;100.00;99523.56;5049591;28;21440;-74
2022/09/27 07:00:52;;;;;;;4.60;1.00;;;;;;;10.10;100.00;99575.66;5070612;28;20252;-74
2022/09/27 07:03:20;;;;;;;3.77;0.90;;;;;;;9.32;100.00;99474.66;5049467;28;21237;-74
2022/09/27 07:05:57;;;;;;;3.50;0.80;;;;;;;9.43;100.00;99470.41;5066820;28;20456;-74
2022/09/27 07:08:25;;;;;;;2.60;1.13;;;;;;;10.04;100.00;99567.69;5048328;28;20483;-74
2022/09/27 07:10:51;;;;;;;3.10;1.00;;;;;;;9.48;100.00;99516.06;5054375;28;20440;-74
2022/09/27 07:13:17;;;;;;;3.87;1.17;;;;;;;9.51;100.00;99516.41;5047299;28;20441;-74
2022/09/27 07:15:43;;;;;;;4.93;1.50;;;;;;;9.11;100.00;99451.03;5056812;28;20443;-74
2022/09/27 07:18:09;;;;;;;5.10;1.30;;;;;;;10.13;100.00;99579.75;5052893;28;20179;-74
2022/09/27 07:20:36;;;;;;;3.57;1.10;;;;;;;9.21;100.00;99446.78;5068331;28;20182;-74
2022/09/27 07:23:03;;;;;;;5.27;1.47;;;;;;;10.09;100.00;99590.06;5047487;28;20201;-74
2022/09/27 07:25:30;;;;;;;5.47;1.33;;;;;;;10.00;100.00;99579.91;5051722;28;20501;-74
2022/09/27 07:28:01;;;;;;;3.43;0.90;;;;;;;10.09;100.00;99584.72;5051915;28;20472;-74
2022/09/27 07:30:26;;;;;;;2.70;1.10;;;;;;;10.19;100.00;99603.75;5039975;28;20440;-74
2022/09/27 07:32:59;;;;;;;4.33;1.23;;;;;;;9.26;100.00;99468.34;5050088;28;20437;-75
2022/09/27 07:35:26;;;;;;;3.47;1.20;;;;;;;9.65;100.00;99518.94;5071222;28;20220;-74
2022/09/27 07:37:51;;;;;;;3.50;1.10;;;;;;;9.30;100.00;99475.94;5067375;28;20966;-73
2022/09/27 07:40:18;;;;;;;2.70;0.60;;;;;;;9.14;100.00;99453.25;5058329;28;20544;-73
2022/09/27 07:42:43;;;;;;;5.10;0.90;;;;;;;10.01;100.00;99582.38;5058020;28;20561;-73
2022/09/27 07:45:10;;;;;;;3.20;0.90;;;;;;;9.58;100.00;99468.16;5078116;28;20442;-73
2022/09/27 07:47:37;;;;;;;2.03;0.60;;;;;;;10.41;100.00;99619.38;5058331;28;20182;-74
2022/09/27 07:50:05;;;;;;;2.70;0.90;;;;;;;10.30;100.00;99626.34;5079125;28;20439;-73
2022/09/27 07:52:40;;;;;;;2.80;0.80;;;;;;;9.91;100.00;99531.19;5075443;28;20422;-73
2022/09/27 07:55:10;;;;;;;5.70;0.97;;;;;;;9.92;100.00;99514.06;5057516;28;20972;-73
2022/09/27 07:57:36;;;;;;;7.30;1.20;;;;;;;9.57;100.00;99465.72;5057990;28;20431;-74
2022/09/27 08:00:08;;;;;;;4.10;1.30;;;;;;;10.50;100.00;99601.94;5060906;28;20449;-73
2022/09/27 08:02:33;;;;;;;4.37;1.17;;;;;;;10.65;100.00;99627.50;5080041;28;20431;-74
2022/09/27 08:04:59;;;;;;;3.20;1.17;;;;;;;10.57;100.00;99616.06;5076712;28;20445;-73
2022/09/27 08:07:25;;;;;;;2.90;1.13;;;;;;;10.68;100.00;99641.28;5062395;28;20182;-74
2022/09/27 08:09:50;;;;;;;3.90;1.00;;;;;;;10.00;100.00;99559.28;5051027;28;20203;-74
2022/09/27 08:12:16;;;;;;;4.93;1.20;;;;;;;10.44;100.00;99613.53;5077602;28;20428;-74
2022/09/27 08:14:42;;;;;;;2.63;0.90;;;;;;;10.53;100.00;99630.97;5076997;28;20187;-73
2022/09/27 08:17:11;;;;;;;4.47;0.80;;;;;;;10.38;100.00;99593.81;5059587;28;20575;-74
2022/09/27 08:19:36;;;;;;;3.90;1.13;;;;;;;10.04;100.00;99539.06;5068128;28;20790;-74
2022/09/27 08:22:02;;;;;;;4.00;1.10;;;;;;;10.01;100.00;99574.34;5076793;28;20424;-74
2022/09/27 08:24:28;;;;;;;3.47;0.90;;;;;;;9.71;100.00;99516.19;5056913;28;20183;-73
2022/09/27 08:26:54;;;;;;;2.60;1.30;;;;;;;8.94;100.00;99397.31;5078455;28;20203;-74
2022/09/27 08:29:19;;;;;;;3.60;1.13;;;;;;;10.50;100.00;99682.38;5057382;28;20202;-74
2022/09/27 08:31:44;;;;;;;4.13;0.97;;;;;;;8.50;100.00;99351.09;5073122;28;20437;-75
2022/09/27 08:34:10;;;;;;;2.63;0.90;;;;;;;9.08;100.00;99451.47;5072770;28;20210;-75
2022/09/27 08:36:36;;;;;;;4.00;1.40;;;;;;;9.15;100.00;99460.25;5069286;28;20569;-74
2022/09/27 08:39:03;;;;;;;4.47;1.20;;;;;;;8.08;100.00;99260.06;5056240;28;20235;-74
2022/09/27 08:41:38;;;;;;;2.70;1.00;;;;;;;8.47;100.00;99364.91;5072391;28;20189;-74
2022/09/27 08:44:35;;;;;;;2.47;1.07;;;;;;;10.08;100.00;99576.91;5077042;28;20465;-75
2022/09/27 08:47:14;;;;;;;2.00;0.70;;;;;;;8.51;100.00;99372.28;5075681;28;20449;-75
2022/09/27 08:49:45;;;;;;;3.17;1.07;;;;;;;9.37;100.00;99484.69;5079468;28;20453;-74
2022/09/27 08:52:34;;;;;;;3.70;0.80;;;;;;;8.58;100.00;99338.28;5074962;28;20459;-75
2022/09/27 08:55:05;;;;;;;3.97;1.00;;;;;;;8.72;100.00;99388.91;5077630;28;20496;-75
2022/09/27 08:57:30;;;;;;;6.20;1.57;;;;;;;8.27;100.00;99308.97;5081912;28;20456;-75
2022/09/27 09:00:10;;;;;;;1.90;0.70;;;;;;;8.35;100.00;99360.25;5082541;28;21053;-74
2022/09/27 09:02:37;;;;;;;4.00;0.80;;;;;;;8.15;100.00;99376.47;5078940;28;20183;-74
2022/09/27 09:05:13;;;;;;;1.63;0.80;;;;;;;8.00;100.00;99346.63;5063527;28;20846;-73
2022/09/27 09:08:05;;;;;;;1.23;1.07;;;;;;;9.97;100.00;99666.88;5062953;28;20746;-73
2022/09/27 09:13:40;;;;;;;1.97;0.70;;;;;;;10.04;100.00;99678.38;5075175;28;20598;-74
2022/09/27 09:16:14;;;;;;;1.93;0.73;;;;;;;10.21;100.00;99670.50;5061530;28;20798;-74
2022/09/27 09:19:00;;;;;;;1.77;0.70;;;;;;;10.16;100.00;99668.53;5076815;28;20428;-75
2022/09/27 09:21:44;;;;;;;2.20;0.80;;;;;;;10.21;100.00;99669.69;5051647;28;20506;-75
2022/09/27 09:24:21;;;;;;;3.63;0.70;;;;;;;10.44;100.00;99671.72;5079429;28;20416;-75
2022/09/27 09:26:59;;;;;;;2.47;0.83;;;;;;;10.33;100.00;99676.00;5080011;28;20447;-75
2022/09/27 09:29:25;;;;;;;1.83;0.73;;;;;;;10.48;100.00;99667.56;5060831;28;20475;-75
2022/09/27 09:32:27;;;;;;;2.33;0.90;;;;;;;10.50;100.00;99668.97;5080127;28;21077;-75
2022/09/27 09:35:10;;;;;;;2.20;0.70;;;;;;;8.53;100.00;99414.78;5079019;28;20181;-75
2022/09/27 09:37:37;;;;;;;1.30;0.60;;;;;;;10.35;100.00;99596.97;5075808;28;20433;-75
2022/09/27 09:40:14;;;;;;;1.50;0.70;;;;;;;9.29;100.00;99464.41;5080849;28;20424;-76
2022/09/27 09:42:57;;;;;;;2.47;1.10;;;;;;;10.76;100.00;99681.19;5076558;28;20439;-75
2022/09/27 09:45:30;;;;;;;3.00;1.10;;;;;;;8.53;100.00;99348.84;5061147;28;20990;-75
2022/09/27 09:48:07;;;;;;;1.87;0.90;;;;;;;10.72;100.00;99655.84;5075603;28;20513;-75
2022/09/27 09:50:41;;;;;;;1.70;0.80;;;;;;;9.05;100.00;99359.13;5078528;28;20428;-75
2022/09/27 09:53:20;;;;;;;1.63;0.87;;;;;;;10.08;100.00;99542.09;5049735;28;20464;-76
2022/09/27 09:56:01;;;;;;;1.50;0.80;;;;;;;9.86;100.00;99515.78;5058875;28;20453;-74
2022/09/27 09:58:39;;;;;;;2.43;0.80;;;;;;;8.38;100.00;99317.09;5058972;28;20432;-75
2022/09/27 10:01:16;;;;;;;6.07;0.87;;;;;;;8.46;100.00;99331.22;5070384;28;20797;-75
2022/09/27 10:03:42;;;;;;;3.17;0.80;;;;;;;8.65;100.00;99421.06;5078473;28;20790;-75
2022/09/27 10:06:10;;;;;;;2.50;0.93;;;;;;;8.89;100.00;99419.38;5079544;28;20497;-75
2022/09/27 10:08:36;;;;;;;1.53;0.77;;;;;;;10.59;100.00;99721.22;5061268;28;20465;-74
2022/09/27 10:11:01;;;;;;;1.20;0.67;;;;;;;10.48;100.00;99689.81;5078927;28;20444;-75
2022/09/27 10:13:32;;;;;;;1.50;0.60;;;;;;;8.80;100.00;99361.91;5072693;28;20198;-75
2022/09/27 10:16:11;;;;;;;1.63;0.53;;;;;;;11.26;100.00;99666.59;5075946;28;20217;-74
2022/09/27 10:18:40;;;;;;;1.20;0.50;;;;;;;9.80;100.00;99400.72;5077515;28;20422;-75
2022/09/27 10:21:12;;;;;;;2.70;0.77;;;;;;;10.96;100.00;99527.13;5056101;28;21245;-75
2022/09/27 10:24:13;;;;;;;2.83;0.80;;;;;;;10.56;100.00;99436.66;5058482;28;20448;-75
2022/09/27 10:26:42;;;;;;;2.10;0.60;;;;;;;10.68;100.00;99539.38;5077982;28;20447;-76
2022/09/27 10:29:19;;;;;;;2.20;0.63;;;;;;;11.39;100.00;99634.13;5060063;28;20475;-75
2022/09/27 10:31:47;;;;;;;1.50;0.70;;;;;;;10.18;100.00;99414.56;5079666;28;20432;-75
2022/09/27 10:34:21;;;;;;;0.93;0.60;;;;;;;11.81;100.00;99631.31;5059010;28;20433;-76
2022/09/27 10:37:02;;;;;;;1.23;0.53;;;;;;;9.25;100.00;99241.97;5080462;28;20531;-75
2022/09/27 10:39:28;;;;;;;1.07;0.50;;;;;;;9.27;100.00;99276.53;5076573;28;20802;-76
2022/09/27 10:41:54;;;;;;;0.60;0.50;;;;;;;10.36;100.00;99494.09;5058449;28;20424;-76
2022/09/27 10:44:31;;;;;;;0.90;0.60;;;;;;;9.06;100.00;99301.94;5074829;28;20504;-76
2022/09/27 10:47:09;;;;;;;1.37;0.50;;;;;;;8.91;100.00;99272.06;5068383;28;20210;-76
2022/09/27 10:49:37;;;;;;;3.80;0.80;;;;;;;10.49;100.00;99481.50;5060332;28;20903;-76
2022/09/27 10:52:13;;;;;;;2.50;0.90;;;;;;;9.98;100.00;99440.84;5074984;28;20422;-78
2022/09/27 10:54:40;;;;;;;1.27;0.63;;;;;;;10.42;100.00;99475.47;5081723;28;20489;-76
2022/09/27 10:57:17;;;;;;;3.43;0.80;;;;;;;10.39;100.00;99477.53;5082257;28;20437;-76
2022/09/27 10:59:46;;;;;;;1.50;0.70;;;;;;;10.46;100.00;99485.47;5052695;28;20425;-76
2022/09/27 11:02:31;;;;;;;1.10;0.60;;;;;;;9.84;100.00;99431.38;5080876;28;20477;-76
2022/09/27 11:05:12;;;;;;;1.17;0.60;;;;;;;9.64;100.00;99370.88;5080429;28;20427;-75
2022/09/27 11:07:51;;;;;;;0.60;0.50;;;;;;;10.67;100.00;99521.63;5064637;28;20930;-76
2022/09/27 11:10:35;;;;;;;1.20;0.60;;;;;;;9.69;100.00;99333.53;5062536;28;21407;-76
2022/09/27 11:13:16;;;;;;;0.80;0.60;;;;;;;11.57;100.00;99625.16;5079232;28;20918;-76
2022/09/27 11:15:54;;;;;;;3.87;0.90;;;;;;;11.08;100.00;99552.94;5064662;28;20494;-75
2022/09/27 11:18:38;;;;;;;1.07;0.60;;;;;;;11.37;100.00;99627.38;5059927;28;20429;-75
2022/09/27 11:21:15;;;;;;;5.50;0.70;;;;;;;9.34;100.00;99365.53;5079939;28;20416;-75
2022/09/27 11:23:59;;;;;;;2.10;1.37;;;;;;;11.32;100.00;99634.25;5052387;28;20427;-75
2022/09/27 11:26:44;;;;;;;1.37;0.63;;;;;;;10.67;100.00;99591.34;5078408;28;20492;-75
2022/09/27 11:29:15;;;;;;;1.63;0.60;;;;;;;11.15;100.00;99624.47;5059619;28;20475;-76
2022/09/27 11:31:51;;;;;;;2.70;0.90;;;;;;;11.14;100.00;99622.81;5080091;28;20827;-75
2022/09/27 11:34:36;;;;;;;2.90;0.80;;;;;;;11.00;100.00;99630.28;5076180;28;20478;-75
2022/09/27 11:37:14;;;;;;;2.80;0.80;;;;;;;10.91;100.00;99635.16;5076786;28;20428;-76
2022/09/27 11:40:06;;;;;;;1.67;0.80;;;;;;;9.20;100.00;99380.97;5077856;28;20483;-75
2022/09/27 11:42:54;;;;;;;2.10;0.80;;;;;;;10.99;100.00;99652.75;5045662;28;20881;-78
2022/09/27 11:45:40;;;;;;;3.87;0.97;;;;;;;10.80;100.00;99678.88;5076308;28;20459;-76
2022/09/27 11:48:18;;;;;;;3.20;1.90;;;;;;;11.01;100.00;99664.91;5053503;28;20463;-76
2022/09/27 11:50:52;;;;;;;3.30;2.07;;;;;;;11.15;100.00;99672.75;5076658;28;20424;-75
2022/09/27 11:53:33;;;;;;;6.13;1.37;;;;;;;11.15;100.00;99574.28;5057846;28;20434;-75
2022/09/27 11:56:30;;;;;;;4.73;1.43;;;;;;;11.64;100.00;99652.72;5053979;28;20461;-75
2022/09/27 11:58:58;;;;;;;1.87;0.80;;;;;;;10.94;100.00;99564.13;5078885;28;20451;-75